createdAt,value
2023-09-28T00:02:01.364Z,97528.84
2023-09-28T00:04:47.021Z,97525.97
2023-09-28T00:07:32.280Z,97525.78
2023-09-28T00:10:17.396Z,97506.88
2023-09-28T00:13:02.753Z,97497.94
2023-09-28T00:15:48.263Z,97523.19
2023-09-28T00:18:34.026Z,97521.63
2023-09-28T00:21:19.350Z,97527.69
2023-09-28T00:24:04.849Z,97501.41
2023-09-28T00:26:50.395Z,97499.47
2023-09-28T00:29:35.920Z,97502.28
2023-09-28T00:32:21.579Z,97503.25
2023-09-28T00:35:07.081Z,97502.44
2023-09-28T00:37:55.121Z,97511.47
2023-09-28T00:40:40.695Z,97507.84
2023-09-28T00:43:29.340Z,97507.38
2023-09-28T00:46:14.938Z,97510.47
2023-09-28T00:49:00.521Z,97511.81
2023-09-28T00:51:45.882Z,97506.47
2023-09-28T00:54:30.878Z,97506.25
2023-09-28T00:57:15.857Z,97511.38
2023-09-28T01:00:00.764Z,97506.69
2023-09-28T01:02:45.669Z,97504.25
2023-09-28T01:05:31.291Z,97514.06
2023-09-28T01:08:16.787Z,97514.81
2023-09-28T01:11:02.385Z,97519.38
2023-09-28T01:13:48.087Z,97512.53
2023-09-28T01:16:33.558Z,97514.53
2023-09-28T01:19:18.991Z,97516.81
2023-09-28T01:22:04.678Z,97512.69
2023-09-28T01:24:50.179Z,97509.03
2023-09-28T01:27:35.301Z,97505.31
2023-09-28T01:30:20.728Z,97498.66
2023-09-28T01:33:05.696Z,97492.09
2023-09-28T01:35:51.215Z,97489.41
2023-09-28T01:38:42.730Z,97492.06
2023-09-28T01:41:28.252Z,97493.13
2023-09-28T01:44:13.458Z,97498.91
2023-09-28T01:46:58.847Z,97510.00
2023-09-28T01:49:44.451Z,97513.94
2023-09-28T01:52:30.049Z,97529.47
2023-09-28T01:55:15.454Z,97532.38
2023-09-28T01:58:00.601Z,97539.56
2023-09-28T02:00:46.049Z,97529.53
2023-09-28T02:03:31.528Z,97529.16
2023-09-28T02:06:19.024Z,97527.63
2023-09-28T02:09:06.518Z,97519.34
2023-09-28T02:11:51.975Z,97518.63
2023-09-28T02:14:37.154Z,97521.50
2023-09-28T02:17:22.710Z,97511.78
2023-09-28T02:20:08.244Z,97524.38
2023-09-28T02:22:54.194Z,97526.63
2023-09-28T02:25:39.892Z,97540.25
2023-09-28T02:28:31.077Z,97539.16
2023-09-28T02:31:16.456Z,97535.66
2023-09-28T02:34:01.861Z,97538.44
2023-09-28T02:36:46.886Z,97532.56
2023-09-28T02:39:34.089Z,97532.22
2023-09-28T02:42:21.061Z,97543.13
2023-09-28T02:45:06.396Z,97560.25
2023-09-28T02:47:51.379Z,97556.06
2023-09-28T02:50:36.893Z,97540.03
2023-09-28T02:53:21.755Z,97543.06
2023-09-28T02:56:07.336Z,97533.69
2023-09-28T02:58:52.831Z,97523.13
2023-09-28T03:01:38.379Z,97525.13
2023-09-28T03:04:23.834Z,97534.88
2023-09-28T03:07:09.299Z,97533.53
2023-09-28T03:09:54.380Z,97536.25
2023-09-28T03:12:41.517Z,97534.53
2023-09-28T03:15:26.519Z,97524.97
2023-09-28T03:18:11.572Z,97527.41
2023-09-28T03:20:58.774Z,97519.09
2023-09-28T03:23:44.264Z,97531.00
2023-09-28T03:26:31.909Z,97539.81
2023-09-28T03:29:17.519Z,97551.69
2023-09-28T03:32:05.103Z,97552.97
2023-09-28T03:34:52.549Z,97540.28
2023-09-28T03:37:38.095Z,97528.06
2023-09-28T03:40:23.071Z,97533.84
2023-09-28T03:43:08.073Z,97544.16
2023-09-28T03:45:57.356Z,97549.91
2023-09-28T03:48:42.886Z,97555.06
2023-09-28T03:51:30.351Z,97550.16
2023-09-28T03:54:15.845Z,97549.31
2023-09-28T03:57:05.181Z,97566.78
2023-09-28T03:59:50.213Z,97555.97
2023-09-28T04:02:35.837Z,97565.25
2023-09-28T04:05:23.304Z,97566.44
2023-09-28T04:08:08.648Z,97565.16
2023-09-28T04:10:54.009Z,97549.78
2023-09-28T04:13:39.394Z,97546.03
2023-09-28T04:16:25.149Z,97552.13
2023-09-28T04:19:10.612Z,97556.94
2023-09-28T04:21:55.665Z,97552.13
2023-09-28T04:24:45.005Z,97558.94
2023-09-28T04:27:32.758Z,97560.44
2023-09-28T04:30:22.656Z,97567.47
2023-09-28T04:33:08.608Z,97564.59
2023-09-28T04:35:54.167Z,97564.91
2023-09-28T04:38:39.277Z,97566.44
2023-09-28T04:41:24.275Z,97562.44
2023-09-28T04:44:09.906Z,97558.47
2023-09-28T04:46:55.522Z,97568.41
2023-09-28T04:49:40.856Z,97566.56
2023-09-28T04:52:28.533Z,97567.25
2023-09-28T04:55:16.040Z,97562.44
2023-09-28T04:58:03.578Z,97564.94
2023-09-28T05:00:49.187Z,97563.88
2023-09-28T05:03:38.588Z,97573.44
2023-09-28T05:06:26.037Z,97575.00
2023-09-28T05:09:11.317Z,97570.56
2023-09-28T05:11:56.238Z,97562.13
2023-09-28T05:14:41.238Z,97558.22
2023-09-28T05:17:26.765Z,97563.41
2023-09-28T05:20:12.330Z,97571.59
2023-09-28T05:22:57.833Z,97570.53
2023-09-28T05:25:47.373Z,97572.66
2023-09-28T05:28:32.755Z,97571.09
2023-09-28T05:31:21.337Z,97562.41
2023-09-28T05:34:09.101Z,97563.81
2023-09-28T05:37:00.796Z,97570.06
2023-09-28T05:39:46.158Z,97552.84
2023-09-28T05:42:31.736Z,97546.25
2023-09-28T05:45:16.747Z,97550.16
2023-09-28T05:48:02.210Z,97556.84
2023-09-28T05:50:49.578Z,97562.31
2023-09-28T05:53:35.038Z,97569.84
2023-09-28T05:56:20.782Z,97570.31
2023-09-28T05:59:07.267Z,97579.34
2023-09-28T06:01:54.529Z,97584.88
2023-09-28T06:04:40.117Z,97582.50
2023-09-28T06:07:25.079Z,97585.66
2023-09-28T06:10:12.364Z,97579.22
2023-09-28T06:12:57.435Z,97588.72
2023-09-28T06:15:42.920Z,97597.88
2023-09-28T06:18:28.411Z,97587.69
2023-09-28T06:21:16.144Z,97592.75
2023-09-28T06:24:01.683Z,97589.69
2023-09-28T06:26:47.257Z,97594.84
2023-09-28T06:29:34.632Z,97593.56
2023-09-28T06:32:20.107Z,97592.91
2023-09-28T06:35:05.555Z,97599.19
2023-09-28T06:37:52.831Z,97594.59
2023-09-28T06:40:38.387Z,97595.22
2023-09-28T06:43:27.984Z,97591.69
2023-09-28T06:46:15.277Z,97582.91
2023-09-28T06:49:00.891Z,97587.56
2023-09-28T06:51:46.264Z,97583.75
2023-09-28T06:54:35.830Z,97585.34
2023-09-28T06:57:26.612Z,97593.41
2023-09-28T07:00:11.854Z,97592.47
2023-09-28T07:02:56.884Z,97601.91
2023-09-28T07:05:44.270Z,97594.97
2023-09-28T07:08:29.594Z,97601.72
2023-09-28T07:11:16.914Z,97597.34
2023-09-28T07:14:04.612Z,97597.09
2023-09-28T07:16:51.246Z,97591.25
2023-09-28T07:19:36.890Z,97587.56
2023-09-28T07:22:22.249Z,97583.03
2023-09-28T07:25:07.688Z,97581.69
2023-09-28T07:27:52.716Z,97585.38
2023-09-28T07:30:39.921Z,97589.50
2023-09-28T07:33:25.101Z,97586.91
2023-09-28T07:36:10.642Z,97595.31
2023-09-28T07:38:58.250Z,97594.59
2023-09-28T07:41:43.746Z,97587.41
2023-09-28T07:44:30.324Z,97596.91
2023-09-28T07:47:15.661Z,97598.16
2023-09-28T07:50:01.358Z,97593.75
2023-09-28T07:52:46.829Z,97601.44
2023-09-28T07:55:34.184Z,97594.94
2023-09-28T07:58:26.864Z,97594.94
2023-09-28T08:01:12.463Z,97598.97
2023-09-28T08:04:00.946Z,97595.06
2023-09-28T08:06:46.529Z,97602.50
2023-09-28T08:09:32.365Z,97607.06
2023-09-28T08:12:17.752Z,97603.59
2023-09-28T08:15:02.988Z,97596.75
2023-09-28T08:17:48.313Z,97585.91
2023-09-28T08:20:33.989Z,97588.94
2023-09-28T08:23:19.358Z,97601.38
2023-09-28T08:26:04.859Z,97590.19
2023-09-28T08:28:52.584Z,97594.03
2023-09-28T08:31:38.414Z,97594.19
2023-09-28T08:34:36.802Z,97584.13
2023-09-28T08:37:24.345Z,97585.31
2023-09-28T08:40:10.080Z,97588.34
2023-09-28T08:42:55.178Z,97584.22
2023-09-28T08:45:41.008Z,97585.88
2023-09-28T08:48:26.268Z,97590.88
2023-09-28T08:51:11.967Z,97597.91
2023-09-28T08:53:57.387Z,97607.22
2023-09-28T08:56:42.926Z,97604.34
2023-09-28T08:59:28.543Z,97603.84
2023-09-28T09:02:14.079Z,97607.34
2023-09-28T09:04:59.259Z,97602.69
2023-09-28T09:07:44.746Z,97592.81
2023-09-28T09:10:33.660Z,97593.66
2023-09-28T09:13:22.074Z,97593.84
2023-09-28T09:16:07.462Z,97598.97
2023-09-28T09:18:53.344Z,97596.81
2023-09-28T09:21:39.153Z,97591.28
2023-09-28T09:24:24.566Z,97588.88
2023-09-28T09:27:10.411Z,97580.16
2023-09-28T09:29:55.896Z,97586.16
2023-09-28T09:32:41.461Z,97577.16
2023-09-28T09:35:26.984Z,97577.44
2023-09-28T09:38:12.399Z,97578.66
2023-09-28T09:40:57.978Z,97576.06
2023-09-28T09:43:43.361Z,97583.13
2023-09-28T09:46:28.884Z,97588.63
2023-09-28T09:49:14.259Z,97574.16
2023-09-28T09:51:59.931Z,97572.06
2023-09-28T09:54:45.355Z,97578.22
2023-09-28T09:57:30.436Z,97570.59
2023-09-28T10:00:15.583Z,97566.22
2023-09-28T10:03:03.630Z,97566.41
2023-09-28T10:05:49.286Z,97557.09
2023-09-28T10:08:34.647Z,97557.75
2023-09-28T10:11:19.759Z,97554.66
2023-09-28T10:14:05.250Z,97557.50
2023-09-28T10:16:50.590Z,97550.16
2023-09-28T10:19:36.121Z,97552.41
2023-09-28T10:22:21.156Z,97553.72
2023-09-28T10:25:06.698Z,97554.72
2023-09-28T10:27:52.264Z,97550.81
2023-09-28T10:30:37.663Z,97552.84
2023-09-28T10:33:23.378Z,97558.84
2023-09-28T10:36:08.782Z,97562.03
2023-09-28T10:38:54.331Z,97567.09
2023-09-28T10:41:39.863Z,97562.75
2023-09-28T10:44:25.244Z,97566.56
2023-09-28T10:47:10.890Z,97555.16
2023-09-28T10:49:56.256Z,97558.28
2023-09-28T10:52:41.862Z,97556.22
2023-09-28T10:55:27.342Z,97555.44
2023-09-28T10:58:12.833Z,97552.44
2023-09-28T11:00:57.840Z,97548.63
2023-09-28T11:03:43.013Z,97551.25
2023-09-28T11:06:28.566Z,97537.09
2023-09-28T11:09:13.858Z,97534.81
2023-09-28T11:11:59.368Z,97530.13
2023-09-28T11:14:44.970Z,97537.34
2023-09-28T11:17:30.452Z,97530.72
2023-09-28T11:20:15.979Z,97532.72
2023-09-28T11:23:01.619Z,97530.25
2023-09-28T11:25:47.048Z,97527.75
2023-09-28T11:28:32.492Z,97526.06
2023-09-28T11:31:17.977Z,97516.34
2023-09-28T11:34:03.648Z,97518.22
2023-09-28T11:36:48.967Z,97514.03
2023-09-28T11:39:34.573Z,97512.72
2023-09-28T11:42:20.189Z,97504.38
2023-09-28T11:45:05.424Z,97498.53
2023-09-28T11:47:52.836Z,97496.88
2023-09-28T11:50:38.038Z,97492.03
2023-09-28T11:53:23.565Z,97494.03
2023-09-28T11:56:09.000Z,97495.97
2023-09-28T11:58:54.397Z,97500.00
2023-09-28T12:01:40.047Z,97494.28
2023-09-28T12:04:28.385Z,97498.91
2023-09-28T12:07:13.663Z,97496.03
2023-09-28T12:10:04.519Z,97493.78
2023-09-28T12:12:50.392Z,97491.34
2023-09-28T12:15:35.941Z,97493.47
2023-09-28T12:18:21.450Z,97487.97
2023-09-28T12:21:06.882Z,97485.94
2023-09-28T12:23:51.866Z,97491.09
2023-09-28T12:26:37.641Z,97486.22
2023-09-28T12:29:23.055Z,97479.97
2023-09-28T12:32:08.726Z,97480.16
2023-09-28T12:34:54.239Z,97469.34
2023-09-28T12:37:39.705Z,97472.00
2023-09-28T12:40:26.872Z,97467.91
2023-09-28T12:43:11.940Z,97464.69
2023-09-28T12:45:57.439Z,97461.91
2023-09-28T12:48:42.866Z,97468.75
2023-09-28T12:51:28.472Z,97457.63
2023-09-28T12:54:14.030Z,97455.97
2023-09-28T12:57:00.579Z,97460.66
2023-09-28T12:59:45.931Z,97451.06
2023-09-28T13:02:31.542Z,97435.06
2023-09-28T13:05:17.186Z,97446.59
2023-09-28T13:08:02.682Z,97437.78
2023-09-28T13:10:48.124Z,97439.44
2023-09-28T13:13:33.525Z,97434.34
2023-09-28T13:16:18.948Z,97440.59
2023-09-28T13:19:04.434Z,97433.00
2023-09-28T13:21:49.549Z,97432.72
2023-09-28T13:24:35.742Z,97430.28
2023-09-28T13:27:21.449Z,97430.81
2023-09-28T13:30:06.717Z,97431.09
2023-09-28T13:32:51.777Z,97427.81
2023-09-28T13:35:37.319Z,97428.09
2023-09-28T13:38:22.719Z,97433.81
2023-09-28T13:41:14.296Z,97427.81
2023-09-28T13:43:59.894Z,97425.09
2023-09-28T13:46:45.380Z,97431.34
2023-09-28T13:49:30.849Z,97427.81
2023-09-28T13:52:16.408Z,97417.22
2023-09-28T13:55:02.058Z,97413.38
2023-09-28T13:57:47.534Z,97416.94
2023-09-28T14:00:33.037Z,97411.47
2023-09-28T14:03:18.542Z,97409.31
2023-09-28T14:06:04.204Z,97405.78
2023-09-28T14:08:49.799Z,97404.41
2023-09-28T14:11:35.581Z,97407.41
2023-09-28T14:14:21.105Z,97404.09
2023-09-28T14:17:11.227Z,97395.84
2023-09-28T14:19:58.570Z,97400.72
2023-09-28T14:22:44.249Z,97391.38
2023-09-28T14:25:32.866Z,97384.94
2023-09-28T14:28:18.462Z,97385.75
2023-09-28T14:31:04.232Z,97384.06
2023-09-28T14:33:52.188Z,97388.88
2023-09-28T14:36:37.839Z,97388.59
2023-09-28T14:39:23.243Z,97382.25
2023-09-28T14:42:08.452Z,97377.06
2023-09-28T14:44:54.123Z,97388.56
2023-09-28T14:47:40.019Z,97385.97
2023-09-28T14:50:25.698Z,97385.94
2023-09-28T14:53:13.134Z,97384.47
2023-09-28T14:55:58.877Z,97389.09
2023-09-28T14:58:44.757Z,97384.28
2023-09-28T15:01:30.344Z,97381.56
2023-09-28T15:04:18.390Z,97379.47
2023-09-28T15:07:03.903Z,97382.81
2023-09-28T15:09:49.464Z,97378.25
2023-09-28T15:12:34.873Z,97371.22
2023-09-28T15:15:20.706Z,97372.53
2023-09-28T15:18:06.367Z,97369.09
2023-09-28T15:20:52.094Z,97368.03
2023-09-28T15:23:37.768Z,97363.97
2023-09-28T15:26:23.398Z,97364.03
2023-09-28T15:29:09.269Z,97363.72
2023-09-28T15:31:55.162Z,97371.44
2023-09-28T15:34:41.075Z,97364.53
2023-09-28T15:37:26.494Z,97365.63
2023-09-28T15:40:13.077Z,97375.84
2023-09-28T15:42:58.461Z,97368.00
2023-09-28T15:45:43.748Z,97359.28
2023-09-28T15:48:29.366Z,97364.72
2023-09-28T15:51:14.723Z,97360.13
2023-09-28T15:54:00.206Z,97357.91
2023-09-28T15:56:45.905Z,97365.84
2023-09-28T15:59:31.327Z,97365.03
2023-09-28T16:02:16.810Z,97367.50
2023-09-28T16:05:02.340Z,97363.19
2023-09-28T16:07:47.835Z,97375.50
2023-09-28T16:10:32.865Z,97369.00
2023-09-28T16:13:18.737Z,97379.41
2023-09-28T16:16:04.127Z,97380.56
2023-09-28T16:18:49.943Z,97366.19
2023-09-28T16:21:35.598Z,97369.44
2023-09-28T16:24:21.511Z,97371.69
2023-09-28T16:27:06.882Z,97375.47
2023-09-28T16:29:52.618Z,97380.69
2023-09-28T16:32:38.132Z,97380.69
2023-09-28T16:35:23.398Z,97381.75
2023-09-28T16:38:10.852Z,97383.97
2023-09-28T16:40:57.914Z,97381.53
2023-09-28T16:43:43.337Z,97385.34
2023-09-28T16:46:28.540Z,97387.00
2023-09-28T16:49:13.866Z,97383.47
2023-09-28T16:51:59.005Z,97381.84
2023-09-28T16:54:44.338Z,97387.81
2023-09-28T16:57:29.913Z,97392.72
2023-09-28T17:00:15.510Z,97395.44
2023-09-28T17:03:01.178Z,97388.38
2023-09-28T17:05:46.741Z,97391.09
2023-09-28T17:08:32.304Z,97394.63
2023-09-28T17:11:17.912Z,97391.63
2023-09-28T17:14:03.472Z,97386.13
2023-09-28T17:16:48.538Z,97396.94
2023-09-28T17:19:33.962Z,97396.34
2023-09-28T17:22:18.980Z,97403.59
2023-09-28T17:25:04.001Z,97405.94
2023-09-28T17:27:49.428Z,97414.03
2023-09-28T17:30:36.483Z,97416.13
2023-09-28T17:33:22.056Z,97414.19
2023-09-28T17:36:07.634Z,97413.41
2023-09-28T17:38:53.156Z,97413.91
2023-09-28T17:41:38.524Z,97417.94
2023-09-28T17:44:23.921Z,97428.47
2023-09-28T17:47:09.467Z,97426.56
2023-09-28T17:49:54.927Z,97422.28
2023-09-28T17:52:40.549Z,97436.13
2023-09-28T17:55:25.889Z,97437.41
2023-09-28T17:58:11.331Z,97427.69
2023-09-28T18:00:56.852Z,97435.78
2023-09-28T18:03:41.896Z,97438.13
2023-09-28T18:06:27.285Z,97436.47
2023-09-28T18:09:12.791Z,97447.34
2023-09-28T18:11:58.347Z,97445.28
2023-09-28T18:14:43.947Z,97450.34
2023-09-28T18:17:29.415Z,97459.94
2023-09-28T18:22:58.822Z,97479.88
2023-09-28T18:25:44.439Z,97477.91
2023-09-28T18:28:29.538Z,97480.09
2023-09-28T18:31:15.117Z,97477.47
2023-09-28T18:34:00.959Z,97486.22
2023-09-28T18:36:46.164Z,97496.97
2023-09-28T18:39:31.786Z,97487.63
2023-09-28T18:42:16.776Z,97487.41
2023-09-28T18:45:02.397Z,97484.91
2023-09-28T18:47:48.278Z,97496.31
2023-09-28T18:50:33.700Z,97502.44
2023-09-28T18:53:19.265Z,97498.97
2023-09-28T18:56:04.528Z,97507.34
2023-09-28T18:58:50.121Z,97518.75
2023-09-28T19:01:35.590Z,97510.66
2023-09-28T19:04:21.076Z,97504.81
2023-09-28T19:07:06.523Z,97516.91
2023-09-28T19:09:51.485Z,97520.09
2023-09-28T19:12:37.028Z,97520.53
2023-09-28T19:15:22.592Z,97514.41
2023-09-28T19:18:08.080Z,97523.59
2023-09-28T19:20:53.651Z,97524.13
2023-09-28T19:23:39.059Z,97533.50
2023-09-28T19:26:24.578Z,97535.19
2023-09-28T19:29:11.653Z,97540.94
2023-09-28T19:31:57.269Z,97538.50
2023-09-28T19:34:42.750Z,97544.19
2023-09-28T19:37:28.122Z,97545.53
2023-09-28T19:40:13.244Z,97545.91
2023-09-28T19:42:58.797Z,97543.63
2023-09-28T19:45:44.311Z,97552.25
2023-09-28T19:48:29.896Z,97543.81
2023-09-28T19:51:15.216Z,97551.09
2023-09-28T19:54:00.747Z,97550.63
2023-09-28T19:56:46.221Z,97549.63
2023-09-28T19:59:31.839Z,97548.66
2023-09-28T20:02:17.206Z,97550.28
2023-09-28T20:05:02.690Z,97554.34
2023-09-28T20:07:48.185Z,97560.66
2023-09-28T20:10:34.688Z,97558.34
2023-09-28T20:13:20.191Z,97567.16
2023-09-28T20:16:05.771Z,97562.47
2023-09-28T20:18:51.111Z,97573.63
2023-09-28T20:21:36.322Z,97572.75
2023-09-28T20:24:21.714Z,97572.19
2023-09-28T20:27:06.894Z,97572.41
2023-09-28T20:29:51.768Z,97573.16
2023-09-28T20:32:37.225Z,97570.06
2023-09-28T20:35:22.808Z,97571.59
2023-09-28T20:38:08.155Z,97567.34
2023-09-28T20:40:53.745Z,97573.81
2023-09-28T20:43:39.176Z,97574.88
2023-09-28T20:46:24.712Z,97579.75
2023-09-28T20:49:10.101Z,97587.19
2023-09-28T20:51:55.064Z,97581.13
2023-09-28T20:54:40.270Z,97583.25
2023-09-28T20:57:25.703Z,97585.53
2023-09-28T21:00:11.444Z,97585.78
2023-09-28T21:02:57.101Z,97589.91
2023-09-28T21:05:42.726Z,97593.75
2023-09-28T21:08:28.451Z,97590.94
2023-09-28T21:11:13.935Z,97607.25
2023-09-28T21:13:59.632Z,97597.97
2023-09-28T21:16:44.924Z,97601.75
2023-09-28T21:19:29.868Z,97612.81
2023-09-28T21:22:15.004Z,97601.50
2023-09-28T21:24:59.954Z,97614.50
2023-09-28T21:27:45.620Z,97607.72
2023-09-28T21:30:31.030Z,97606.09
2023-09-28T21:33:16.181Z,97609.53
2023-09-28T21:36:01.699Z,97616.09
2023-09-28T21:38:46.999Z,97613.50
2023-09-28T21:41:32.833Z,97615.13
2023-09-28T21:44:18.302Z,97619.94
2023-09-28T21:47:03.692Z,97613.78
2023-09-28T21:49:48.616Z,97616.25
2023-09-28T21:52:34.024Z,97611.75
2023-09-28T21:55:19.653Z,97617.47
2023-09-28T21:58:05.245Z,97619.94
2023-09-28T22:00:50.727Z,97613.88
2023-09-28T22:03:36.355Z,97614.44
2023-09-28T22:06:21.732Z,97625.06
2023-09-28T22:09:06.727Z,97618.53
2023-09-28T22:11:51.755Z,97618.53
2023-09-28T22:14:36.885Z,97617.03
2023-09-28T22:17:22.356Z,97622.59
2023-09-28T22:20:08.034Z,97618.00
2023-09-28T22:22:53.322Z,97622.44
2023-09-28T22:25:38.354Z,97623.25
2023-09-28T22:28:23.311Z,97620.28
2023-09-28T22:31:08.321Z,97636.41
2023-09-28T22:33:53.981Z,97638.31
2023-09-28T22:36:39.410Z,97637.66
2023-09-28T22:39:24.709Z,97638.72
2023-09-28T22:42:10.090Z,97640.63
2023-09-28T22:44:55.618Z,97633.25
2023-09-28T22:47:40.902Z,97639.19
2023-09-28T22:50:26.257Z,97638.53
2023-09-28T22:53:11.675Z,97642.00
2023-09-28T22:55:56.597Z,97646.03
2023-09-28T22:58:41.429Z,97640.94
2023-09-28T23:01:26.482Z,97636.91
2023-09-28T23:04:11.959Z,97634.09
2023-09-28T23:06:57.437Z,97634.53
2023-09-28T23:09:42.262Z,97630.44
2023-09-28T23:12:27.152Z,97633.84
2023-09-28T23:15:12.550Z,97644.63
2023-09-28T23:17:58.089Z,97642.69
2023-09-28T23:20:43.527Z,97635.78
2023-09-28T23:23:29.101Z,97639.63
2023-09-28T23:26:14.701Z,97642.31
2023-09-28T23:29:00.158Z,97639.72
2023-09-28T23:31:45.155Z,97635.84
2023-09-28T23:34:30.648Z,97639.66
2023-09-28T23:37:16.166Z,97646.03
2023-09-28T23:40:01.226Z,97653.44
2023-09-28T23:42:46.370Z,97652.66
2023-09-28T23:45:31.825Z,97652.94
2023-09-28T23:48:17.484Z,97657.84
2023-09-28T23:51:02.936Z,97655.97
2023-09-28T23:53:48.430Z,97652.88
2023-09-28T23:56:34.025Z,97659.91
2023-09-28T23:59:19.470Z,97656.78
